sensor_id;sensor_type;location;lat;lon;timestamp;P1;durP1;ratioP1;P2;durP2;ratioP2
26686;SDS011;14298;50.900;4.648;2023-09-30T00:01:08;1.23;;;1.13;;
26686;SDS011;14298;50.900;4.648;2023-09-30T00:03:33;1.70;;;1.60;;
26686;SDS011;14298;50.900;4.648;2023-09-30T00:06:01;1.37;;;1.27;;
26686;SDS011;14298;50.900;4.648;2023-09-30T00:08:30;2.20;;;1.57;;
26686;SDS011;14298;50.900;4.648;2023-09-30T00:10:59;1.67;;;1.23;;
26686;SDS011;14298;50.900;4.648;2023-09-30T00:13:27;9.50;;;1.63;;
26686;SDS011;14298;50.900;4.648;2023-09-30T00:15:55;4.83;;;1.70;;
26686;SDS011;14298;50.900;4.648;2023-09-30T00:18:23;1.33;;;1.27;;
26686;SDS011;14298;50.900;4.648;2023-09-30T00:20:51;3.10;;;1.73;;
26686;SDS011;14298;50.900;4.648;2023-09-30T00:23:19;1.77;;;1.27;;
26686;SDS011;14298;50.900;4.648;2023-09-30T00:25:48;1.27;;;1.17;;
26686;SDS011;14298;50.900;4.648;2023-09-30T00:28:17;2.27;;;1.37;;
26686;SDS011;14298;50.900;4.648;2023-09-30T00:30:46;1.37;;;1.10;;
26686;SDS011;14298;50.900;4.648;2023-09-30T00:33:14;1.93;;;1.10;;
26686;SDS011;14298;50.900;4.648;2023-09-30T00:35:42;1.40;;;1.30;;
26686;SDS011;14298;50.900;4.648;2023-09-30T00:38:10;0.60;;;0.60;;
26686;SDS011;14298;50.900;4.648;2023-09-30T00:40:38;2.40;;;1.10;;
26686;SDS011;14298;50.900;4.648;2023-09-30T00:43:06;2.40;;;1.93;;
26686;SDS011;14298;50.900;4.648;2023-09-30T00:45:34;1.13;;;1.07;;
26686;SDS011;14298;50.900;4.648;2023-09-30T00:48:03;0.63;;;0.63;;
26686;SDS011;14298;50.900;4.648;2023-09-30T00:50:31;1.70;;;1.60;;
26686;SDS011;14298;50.900;4.648;2023-09-30T00:52:59;1.03;;;0.93;;
26686;SDS011;14298;50.900;4.648;2023-09-30T00:55:27;1.20;;;1.10;;
26686;SDS011;14298;50.900;4.648;2023-09-30T00:57:55;1.80;;;1.70;;
26686;SDS011;14298;50.900;4.648;2023-09-30T01:00:24;2.10;;;1.90;;
26686;SDS011;14298;50.900;4.648;2023-09-30T01:02:52;1.47;;;1.37;;
26686;SDS011;14298;50.900;4.648;2023-09-30T01:05:20;1.60;;;1.40;;
26686;SDS011;14298;50.900;4.648;2023-09-30T01:07:48;3.67;;;1.77;;
26686;SDS011;14298;50.900;4.648;2023-09-30T01:10:16;2.63;;;1.77;;
26686;SDS011;14298;50.900;4.648;2023-09-30T01:12:44;2.03;;;1.50;;
26686;SDS011;14298;50.900;4.648;2023-09-30T01:15:14;3.87;;;2.10;;
26686;SDS011;14298;50.900;4.648;2023-09-30T01:17:42;3.13;;;2.37;;
26686;SDS011;14298;50.900;4.648;2023-09-30T01:20:10;2.27;;;1.97;;
26686;SDS011;14298;50.900;4.648;2023-09-30T01:22:39;2.00;;;1.90;;
26686;SDS011;14298;50.900;4.648;2023-09-30T01:25:08;1.97;;;1.83;;
26686;SDS011;14298;50.900;4.648;2023-09-30T01:27:37;4.13;;;2.47;;
26686;SDS011;14298;50.900;4.648;2023-09-30T01:30:05;2.03;;;1.87;;
26686;SDS011;14298;50.900;4.648;2023-09-30T01:32:35;1.00;;;0.97;;
26686;SDS011;14298;50.900;4.648;2023-09-30T01:35:03;10.03;;;2.00;;
26686;SDS011;14298;50.900;4.648;2023-09-30T01:37:31;1.80;;;1.70;;
26686;SDS011;14298;50.900;4.648;2023-09-30T01:39:59;2.43;;;2.23;;
26686;SDS011;14298;50.900;4.648;2023-09-30T01:42:27;1.80;;;1.40;;
26686;SDS011;14298;50.900;4.648;2023-09-30T01:44:55;2.87;;;1.67;;
26686;SDS011;14298;50.900;4.648;2023-09-30T01:47:24;2.07;;;1.77;;
26686;SDS011;14298;50.900;4.648;2023-09-30T01:49:52;1.50;;;1.43;;
26686;SDS011;14298;50.900;4.648;2023-09-30T01:52:20;2.10;;;1.83;;
26686;SDS011;14298;50.900;4.648;2023-09-30T01:54:48;7.53;;;1.37;;
26686;SDS011;14298;50.900;4.648;2023-09-30T01:57:16;2.43;;;2.17;;
26686;SDS011;14298;50.900;4.648;2023-09-30T01:59:44;2.53;;;1.20;;
26686;SDS011;14298;50.900;4.648;2023-09-30T02:02:12;2.00;;;1.90;;
26686;SDS011;14298;50.900;4.648;2023-09-30T02:04:40;2.60;;;2.37;;
26686;SDS011;14298;50.900;4.648;2023-09-30T02:07:08;13.13;;;2.33;;
26686;SDS011;14298;50.900;4.648;2023-09-30T02:09:36;2.27;;;1.90;;
26686;SDS011;14298;50.900;4.648;2023-09-30T02:12:04;1.93;;;1.80;;
26686;SDS011;14298;50.900;4.648;2023-09-30T02:14:34;1.17;;;1.10;;
26686;SDS011;14298;50.900;4.648;2023-09-30T02:17:02;1.97;;;1.87;;
26686;SDS011;14298;50.900;4.648;2023-09-30T02:19:31;1.77;;;1.67;;
26686;SDS011;14298;50.900;4.648;2023-09-30T02:22:00;1.33;;;1.23;;
26686;SDS011;14298;50.900;4.648;2023-09-30T02:24:29;2.20;;;2.00;;
26686;SDS011;14298;50.900;4.648;2023-09-30T02:26:57;3.23;;;1.43;;
26686;SDS011;14298;50.900;4.648;2023-09-30T02:29:25;1.90;;;1.80;;
26686;SDS011;14298;50.900;4.648;2023-09-30T02:31:53;1.87;;;1.77;;
26686;SDS011;14298;50.900;4.648;2023-09-30T02:34:22;3.47;;;1.77;;
26686;SDS011;14298;50.900;4.648;2023-09-30T02:36:51;5.50;;;1.90;;
26686;SDS011;14298;50.900;4.648;2023-09-30T02:39:19;1.63;;;1.53;;
26686;SDS011;14298;50.900;4.648;2023-09-30T02:41:46;2.37;;;2.13;;
26686;SDS011;14298;50.900;4.648;2023-09-30T02:44:16;2.50;;;1.93;;
26686;SDS011;14298;50.900;4.648;2023-09-30T02:46:44;2.27;;;1.70;;
26686;SDS011;14298;50.900;4.648;2023-09-30T02:49:12;2.10;;;1.93;;
26686;SDS011;14298;50.900;4.648;2023-09-30T02:51:40;2.00;;;1.53;;
26686;SDS011;14298;50.900;4.648;2023-09-30T02:54:08;2.30;;;1.93;;
26686;SDS011;14298;50.900;4.648;2023-09-30T02:56:36;1.93;;;1.47;;
26686;SDS011;14298;50.900;4.648;2023-09-30T02:59:05;2.10;;;1.70;;
26686;SDS011;14298;50.900;4.648;2023-09-30T03:01:34;1.13;;;1.13;;
26686;SDS011;14298;50.900;4.648;2023-09-30T03:04:02;2.43;;;2.10;;
26686;SDS011;14298;50.900;4.648;2023-09-30T03:06:32;2.73;;;1.90;;
26686;SDS011;14298;50.900;4.648;2023-09-30T03:09:04;1.27;;;1.07;;
26686;SDS011;14298;50.900;4.648;2023-09-30T03:14:19;2.00;;;1.77;;
26686;SDS011;14298;50.900;4.648;2023-09-30T03:16:47;2.40;;;2.10;;
26686;SDS011;14298;50.900;4.648;2023-09-30T03:19:15;2.20;;;1.53;;
26686;SDS011;14298;50.900;4.648;2023-09-30T03:21:43;3.40;;;1.77;;
26686;SDS011;14298;50.900;4.648;2023-09-30T03:24:11;3.97;;;2.03;;
26686;SDS011;14298;50.900;4.648;2023-09-30T03:26:39;6.53;;;2.13;;
26686;SDS011;14298;50.900;4.648;2023-09-30T03:29:09;1.47;;;1.37;;
26686;SDS011;14298;50.900;4.648;2023-09-30T03:31:37;2.63;;;1.63;;
26686;SDS011;14298;50.900;4.648;2023-09-30T03:34:05;1.53;;;1.37;;
26686;SDS011;14298;50.900;4.648;2023-09-30T03:36:33;5.13;;;2.23;;
26686;SDS011;14298;50.900;4.648;2023-09-30T03:39:02;2.37;;;2.17;;
26686;SDS011;14298;50.900;4.648;2023-09-30T03:41:33;4.90;;;1.97;;
26686;SDS011;14298;50.900;4.648;2023-09-30T03:44:03;3.87;;;2.47;;
26686;SDS011;14298;50.900;4.648;2023-09-30T03:46:31;1.53;;;1.43;;
26686;SDS011;14298;50.900;4.648;2023-09-30T03:48:59;1.70;;;1.60;;
26686;SDS011;14298;50.900;4.648;2023-09-30T03:51:27;5.03;;;1.53;;
26686;SDS011;14298;50.900;4.648;2023-09-30T03:53:55;3.60;;;2.13;;
26686;SDS011;14298;50.900;4.648;2023-09-30T03:56:23;1.90;;;1.80;;
26686;SDS011;14298;50.900;4.648;2023-09-30T03:58:52;2.73;;;1.30;;
26686;SDS011;14298;50.900;4.648;2023-09-30T04:01:20;1.37;;;1.27;;
26686;SDS011;14298;50.900;4.648;2023-09-30T04:03:48;2.93;;;1.50;;
26686;SDS011;14298;50.900;4.648;2023-09-30T04:06:16;1.73;;;1.27;;
26686;SDS011;14298;50.900;4.648;2023-09-30T04:08:44;1.40;;;1.30;;
26686;SDS011;14298;50.900;4.648;2023-09-30T04:11:12;3.17;;;1.33;;
26686;SDS011;14298;50.900;4.648;2023-09-30T04:13:42;1.70;;;1.60;;
26686;SDS011;14298;50.900;4.648;2023-09-30T04:16:10;6.90;;;2.37;;
26686;SDS011;14298;50.900;4.648;2023-09-30T04:18:38;2.17;;;2.00;;
26686;SDS011;14298;50.900;4.648;2023-09-30T04:21:07;3.93;;;3.10;;
26686;SDS011;14298;50.900;4.648;2023-09-30T04:23:35;2.17;;;2.07;;
26686;SDS011;14298;50.900;4.648;2023-09-30T04:26:03;2.53;;;2.13;;
26686;SDS011;14298;50.900;4.648;2023-09-30T04:28:32;5.63;;;3.03;;
26686;SDS011;14298;50.900;4.648;2023-09-30T04:31:01;3.40;;;3.07;;
26686;SDS011;14298;50.900;4.648;2023-09-30T04:33:30;4.83;;;3.50;;
26686;SDS011;14298;50.900;4.648;2023-09-30T04:35:58;5.50;;;3.63;;
26686;SDS011;14298;50.900;4.648;2023-09-30T04:38:26;3.87;;;3.17;;
26686;SDS011;14298;50.900;4.648;2023-09-30T04:40:54;3.90;;;3.23;;
26686;SDS011;14298;50.900;4.648;2023-09-30T04:43:22;4.37;;;3.57;;
26686;SDS011;14298;50.900;4.648;2023-09-30T04:45:50;2.93;;;2.57;;
26686;SDS011;14298;50.900;4.648;2023-09-30T04:48:19;5.40;;;3.50;;
26686;SDS011;14298;50.900;4.648;2023-09-30T04:50:47;3.53;;;3.23;;
26686;SDS011;14298;50.900;4.648;2023-09-30T04:53:15;4.70;;;4.10;;
26686;SDS011;14298;50.900;4.648;2023-09-30T04:55:44;7.70;;;4.27;;
26686;SDS011;14298;50.900;4.648;2023-09-30T04:58:12;6.43;;;4.27;;
26686;SDS011;14298;50.900;4.648;2023-09-30T05:00:40;6.43;;;4.90;;
26686;SDS011;14298;50.900;4.648;2023-09-30T05:03:08;4.07;;;3.67;;
26686;SDS011;14298;50.900;4.648;2023-09-30T05:05:36;7.53;;;4.50;;
26686;SDS011;14298;50.900;4.648;2023-09-30T05:08:04;4.00;;;3.37;;
26686;SDS011;14298;50.900;4.648;2023-09-30T05:10:33;6.30;;;5.67;;
26686;SDS011;14298;50.900;4.648;2023-09-30T05:13:01;5.67;;;4.67;;
26686;SDS011;14298;50.900;4.648;2023-09-30T05:15:30;4.23;;;3.83;;
26686;SDS011;14298;50.900;4.648;2023-09-30T05:17:59;6.53;;;4.83;;
26686;SDS011;14298;50.900;4.648;2023-09-30T05:20:27;7.17;;;4.67;;
26686;SDS011;14298;50.900;4.648;2023-09-30T05:22:55;7.83;;;3.57;;
26686;SDS011;14298;50.900;4.648;2023-09-30T05:25:23;6.83;;;5.10;;
26686;SDS011;14298;50.900;4.648;2023-09-30T05:27:53;5.03;;;4.37;;
26686;SDS011;14298;50.900;4.648;2023-09-30T05:30:21;5.43;;;3.43;;
26686;SDS011;14298;50.900;4.648;2023-09-30T05:32:49;5.67;;;4.10;;
26686;SDS011;14298;50.900;4.648;2023-09-30T05:35:19;4.90;;;4.07;;
26686;SDS011;14298;50.900;4.648;2023-09-30T05:37:49;7.07;;;5.53;;
26686;SDS011;14298;50.900;4.648;2023-09-30T05:40:19;8.07;;;4.90;;
26686;SDS011;14298;50.900;4.648;2023-09-30T05:42:49;13.43;;;5.10;;
26686;SDS011;14298;50.900;4.648;2023-09-30T05:45:17;5.67;;;5.13;;
26686;SDS011;14298;50.900;4.648;2023-09-30T05:47:45;7.77;;;5.37;;
26686;SDS011;14298;50.900;4.648;2023-09-30T05:50:13;7.73;;;4.87;;
26686;SDS011;14298;50.900;4.648;2023-09-30T05:52:43;4.50;;;4.10;;
26686;SDS011;14298;50.900;4.648;2023-09-30T05:55:12;8.23;;;5.43;;
26686;SDS011;14298;50.900;4.648;2023-09-30T05:57:42;12.00;;;5.43;;
26686;SDS011;14298;50.900;4.648;2023-09-30T06:00:11;5.80;;;4.17;;
26686;SDS011;14298;50.900;4.648;2023-09-30T06:02:41;5.90;;;4.30;;
26686;SDS011;14298;50.900;4.648;2023-09-30T06:05:09;6.43;;;4.30;;
26686;SDS011;14298;50.900;4.648;2023-09-30T06:07:38;6.37;;;4.60;;
26686;SDS011;14298;50.900;4.648;2023-09-30T06:10:08;7.37;;;5.57;;
26686;SDS011;14298;50.900;4.648;2023-09-30T06:12:36;6.77;;;5.10;;
26686;SDS011;14298;50.900;4.648;2023-09-30T06:15:05;4.47;;;3.97;;
26686;SDS011;14298;50.900;4.648;2023-09-30T06:17:33;8.83;;;4.87;;
26686;SDS011;14298;50.900;4.648;2023-09-30T06:20:04;6.37;;;5.33;;
26686;SDS011;14298;50.900;4.648;2023-09-30T06:22:32;8.10;;;4.93;;
26686;SDS011;14298;50.900;4.648;2023-09-30T06:25:00;14.40;;;5.90;;
26686;SDS011;14298;50.900;4.648;2023-09-30T06:27:30;9.83;;;6.17;;
26686;SDS011;14298;50.900;4.648;2023-09-30T06:29:58;13.20;;;7.97;;
26686;SDS011;14298;50.900;4.648;2023-09-30T06:32:26;8.23;;;5.53;;
26686;SDS011;14298;50.900;4.648;2023-09-30T06:34:54;10.67;;;6.17;;
26686;SDS011;14298;50.900;4.648;2023-09-30T06:37:22;8.23;;;5.97;;
26686;SDS011;14298;50.900;4.648;2023-09-30T06:39:50;9.20;;;4.77;;
26686;SDS011;14298;50.900;4.648;2023-09-30T06:42:18;6.10;;;4.93;;
26686;SDS011;14298;50.900;4.648;2023-09-30T06:44:46;7.93;;;5.90;;
26686;SDS011;14298;50.900;4.648;2023-09-30T06:47:14;8.70;;;4.87;;
26686;SDS011;14298;50.900;4.648;2023-09-30T06:49:43;3.23;;;2.90;;
26686;SDS011;14298;50.900;4.648;2023-09-30T06:52:12;6.03;;;3.37;;
26686;SDS011;14298;50.900;4.648;2023-09-30T06:54:40;4.63;;;3.67;;
26686;SDS011;14298;50.900;4.648;2023-09-30T06:57:08;7.03;;;3.30;;
26686;SDS011;14298;50.900;4.648;2023-09-30T06:59:36;6.10;;;3.87;;
26686;SDS011;14298;50.900;4.648;2023-09-30T07:02:04;4.23;;;3.83;;
26686;SDS011;14298;50.900;4.648;2023-09-30T07:04:32;4.90;;;3.90;;
26686;SDS011;14298;50.900;4.648;2023-09-30T07:07:00;3.10;;;2.67;;
26686;SDS011;14298;50.900;4.648;2023-09-30T07:09:28;4.17;;;2.53;;
26686;SDS011;14298;50.900;4.648;2023-09-30T07:11:57;7.90;;;3.90;;
26686;SDS011;14298;50.900;4.648;2023-09-30T07:14:25;5.17;;;2.23;;
26686;SDS011;14298;50.900;4.648;2023-09-30T07:16:53;6.03;;;3.50;;
26686;SDS011;14298;50.900;4.648;2023-09-30T07:19:21;3.67;;;2.90;;
26686;SDS011;14298;50.900;4.648;2023-09-30T07:21:49;3.93;;;2.77;;
26686;SDS011;14298;50.900;4.648;2023-09-30T07:24:17;3.47;;;2.57;;
26686;SDS011;14298;50.900;4.648;2023-09-30T07:26:45;2.50;;;2.30;;
26686;SDS011;14298;50.900;4.648;2023-09-30T07:29:13;4.13;;;3.73;;
26686;SDS011;14298;50.900;4.648;2023-09-30T07:34:28;5.80;;;3.50;;
26686;SDS011;14298;50.900;4.648;2023-09-30T07:36:56;5.70;;;2.73;;
26686;SDS011;14298;50.900;4.648;2023-09-30T07:39:24;2.90;;;2.70;;
26686;SDS011;14298;50.900;4.648;2023-09-30T07:41:52;5.90;;;2.67;;
26686;SDS011;14298;50.900;4.648;2023-09-30T07:44:20;2.43;;;2.20;;
26686;SDS011;14298;50.900;4.648;2023-09-30T07:46:48;4.47;;;2.77;;
26686;SDS011;14298;50.900;4.648;2023-09-30T07:49:16;5.57;;;2.90;;
26686;SDS011;14298;50.900;4.648;2023-09-30T07:51:44;7.93;;;2.87;;
26686;SDS011;14298;50.900;4.648;2023-09-30T07:54:16;8.60;;;3.47;;
26686;SDS011;14298;50.900;4.648;2023-09-30T07:56:44;2.30;;;1.60;;
26686;SDS011;14298;50.900;4.648;2023-09-30T07:59:12;6.90;;;2.77;;
26686;SDS011;14298;50.900;4.648;2023-09-30T08:01:41;9.43;;;3.20;;
26686;SDS011;14298;50.900;4.648;2023-09-30T08:04:09;5.33;;;3.20;;
26686;SDS011;14298;50.900;4.648;2023-09-30T08:06:38;2.07;;;1.77;;
26686;SDS011;14298;50.900;4.648;2023-09-30T08:09:06;6.07;;;2.13;;
26686;SDS011;14298;50.900;4.648;2023-09-30T08:11:36;3.90;;;2.37;;
26686;SDS011;14298;50.900;4.648;2023-09-30T08:14:04;3.53;;;1.60;;
26686;SDS011;14298;50.900;4.648;2023-09-30T08:16:34;6.63;;;2.40;;
26686;SDS011;14298;50.900;4.648;2023-09-30T08:19:02;4.10;;;2.10;;
26686;SDS011;14298;50.900;4.648;2023-09-30T08:21:30;1.50;;;1.40;;
26686;SDS011;14298;50.900;4.648;2023-09-30T08:23:59;5.03;;;1.40;;
26686;SDS011;14298;50.900;4.648;2023-09-30T08:26:27;6.40;;;2.47;;
26686;SDS011;14298;50.900;4.648;2023-09-30T08:28:55;7.17;;;3.43;;
26686;SDS011;14298;50.900;4.648;2023-09-30T08:31:23;3.07;;;1.90;;
26686;SDS011;14298;50.900;4.648;2023-09-30T08:33:51;1.47;;;1.37;;
26686;SDS011;14298;50.900;4.648;2023-09-30T08:36:19;5.97;;;2.37;;
26686;SDS011;14298;50.900;4.648;2023-09-30T08:38:47;7.57;;;2.57;;
26686;SDS011;14298;50.900;4.648;2023-09-30T08:41:28;3.20;;;1.83;;
26686;SDS011;14298;50.900;4.648;2023-09-30T08:43:53;2.30;;;1.73;;
26686;SDS011;14298;50.900;4.648;2023-09-30T08:46:24;1.17;;;1.07;;
26686;SDS011;14298;50.900;4.648;2023-09-30T08:48:52;4.77;;;1.77;;
26686;SDS011;14298;50.900;4.648;2023-09-30T08:51:21;7.60;;;2.70;;
26686;SDS011;14298;50.900;4.648;2023-09-30T08:53:49;3.20;;;2.10;;
26686;SDS011;14298;50.900;4.648;2023-09-30T08:56:19;2.33;;;1.70;;
26686;SDS011;14298;50.900;4.648;2023-09-30T08:58:47;1.97;;;1.67;;
26686;SDS011;14298;50.900;4.648;2023-09-30T09:01:16;4.23;;;1.90;;
26686;SDS011;14298;50.900;4.648;2023-09-30T09:03:45;11.77;;;2.30;;
26686;SDS011;14298;50.900;4.648;2023-09-30T09:06:14;2.37;;;1.03;;
26686;SDS011;14298;50.900;4.648;2023-09-30T09:08:43;6.90;;;2.27;;
26686;SDS011;14298;50.900;4.648;2023-09-30T09:11:11;4.63;;;1.77;;
26686;SDS011;14298;50.900;4.648;2023-09-30T09:13:50;2.20;;;1.40;;
26686;SDS011;14298;50.900;4.648;2023-09-30T09:16:20;3.77;;;1.60;;
26686;SDS011;14298;50.900;4.648;2023-09-30T09:18:49;3.43;;;2.03;;
26686;SDS011;14298;50.900;4.648;2023-09-30T09:21:18;2.87;;;1.57;;
26686;SDS011;14298;50.900;4.648;2023-09-30T09:23:48;3.80;;;1.90;;
26686;SDS011;14298;50.900;4.648;2023-09-30T09:26:23;3.33;;;2.43;;
26686;SDS011;14298;50.900;4.648;2023-09-30T09:28:58;8.93;;;2.17;;
26686;SDS011;14298;50.900;4.648;2023-09-30T09:31:32;2.60;;;1.40;;
26686;SDS011;14298;50.900;4.648;2023-09-30T09:33:56;12.93;;;1.12;;
26686;SDS011;14298;50.900;4.648;2023-09-30T09:36:44;1.45;;;0.70;;
26686;SDS011;14298;50.900;4.648;2023-09-30T09:39:12;5.17;;;1.92;;
26686;SDS011;14298;50.900;4.648;2023-09-30T09:41:48;1.47;;;1.32;;
26686;SDS011;14298;50.900;4.648;2023-09-30T09:44:10;10.10;;;1.77;;
26686;SDS011;14298;50.900;4.648;2023-09-30T09:46:38;0.90;;;0.90;;
26686;SDS011;14298;50.900;4.648;2023-09-30T09:49:06;2.00;;;0.98;;
26686;SDS011;14298;50.900;4.648;2023-09-30T09:51:35;1.05;;;0.85;;
26686;SDS011;14298;50.900;4.648;2023-09-30T09:54:03;2.33;;;1.27;;
26686;SDS011;14298;50.900;4.648;2023-09-30T09:56:33;2.02;;;0.80;;
26686;SDS011;14298;50.900;4.648;2023-09-30T09:59:02;2.80;;;0.53;;
26686;SDS011;14298;50.900;4.648;2023-09-30T10:01:33;2.30;;;1.50;;
26686;SDS011;14298;50.900;4.648;2023-09-30T10:04:06;1.43;;;1.33;;
26686;SDS011;14298;50.900;4.648;2023-09-30T10:06:34;0.63;;;0.63;;
26686;SDS011;14298;50.900;4.648;2023-09-30T10:09:07;1.73;;;1.00;;
26686;SDS011;14298;50.900;4.648;2023-09-30T10:11:38;6.83;;;1.10;;
26686;SDS011;14298;50.900;4.648;2023-09-30T10:14:07;0.53;;;0.47;;
26686;SDS011;14298;50.900;4.648;2023-09-30T10:19:13;4.70;;;1.17;;
26686;SDS011;14298;50.900;4.648;2023-09-30T10:24:28;1.13;;;0.63;;
26686;SDS011;14298;50.900;4.648;2023-09-30T10:29:44;2.87;;;0.97;;
26686;SDS011;14298;50.900;4.648;2023-09-30T10:32:12;1.57;;;1.17;;
26686;SDS011;14298;50.900;4.648;2023-09-30T10:34:49;0.90;;;0.80;;
26686;SDS011;14298;50.900;4.648;2023-09-30T10:37:20;1.47;;;1.10;;
26686;SDS011;14298;50.900;4.648;2023-09-30T10:42:47;0.80;;;0.80;;
26686;SDS011;14298;50.900;4.648;2023-09-30T10:48:31;4.77;;;1.73;;
26686;SDS011;14298;50.900;4.648;2023-09-30T10:53:08;3.60;;;1.37;;
26686;SDS011;14298;50.900;4.648;2023-09-30T10:55:37;7.90;;;1.80;;
26686;SDS011;14298;50.900;4.648;2023-09-30T10:58:05;0.90;;;0.77;;
26686;SDS011;14298;50.900;4.648;2023-09-30T11:00:33;1.47;;;0.63;;
26686;SDS011;14298;50.900;4.648;2023-09-30T11:03:01;2.10;;;1.13;;
26686;SDS011;14298;50.900;4.648;2023-09-30T11:05:29;1.43;;;0.80;;
26686;SDS011;14298;50.900;4.648;2023-09-30T11:07:57;1.80;;;0.80;;
26686;SDS011;14298;50.900;4.648;2023-09-30T11:10:27;1.10;;;0.50;;
26686;SDS011;14298;50.900;4.648;2023-09-30T11:12:58;7.67;;;1.00;;
26686;SDS011;14298;50.900;4.648;2023-09-30T11:15:26;1.03;;;0.90;;
26686;SDS011;14298;50.900;4.648;2023-09-30T11:18:12;3.90;;;1.57;;
26686;SDS011;14298;50.900;4.648;2023-09-30T11:20:24;3.43;;;0.97;;
26686;SDS011;14298;50.900;4.648;2023-09-30T11:22:52;7.73;;;1.20;;
26686;SDS011;14298;50.900;4.648;2023-09-30T11:25:20;2.83;;;1.03;;
26686;SDS011;14298;50.900;4.648;2023-09-30T11:27:49;0.90;;;0.60;;
26686;SDS011;14298;50.900;4.648;2023-09-30T11:30:17;8.50;;;1.00;;
26686;SDS011;14298;50.900;4.648;2023-09-30T11:32:45;4.90;;;0.80;;
26686;SDS011;14298;50.900;4.648;2023-09-30T11:35:22;4.17;;;0.77;;
26686;SDS011;14298;50.900;4.648;2023-09-30T11:37:51;0.70;;;0.70;;
26686;SDS011;14298;50.900;4.648;2023-09-30T11:40:19;4.03;;;1.17;;
26686;SDS011;14298;50.900;4.648;2023-09-30T11:43:07;1.60;;;1.20;;
26686;SDS011;14298;50.900;4.648;2023-09-30T11:45:36;2.67;;;0.83;;
26686;SDS011;14298;50.900;4.648;2023-09-30T11:48:15;0.83;;;0.83;;
26686;SDS011;14298;50.900;4.648;2023-09-30T11:50:46;1.50;;;0.60;;
26686;SDS011;14298;50.900;4.648;2023-09-30T11:53:15;1.20;;;1.10;;
26686;SDS011;14298;50.900;4.648;2023-09-30T11:55:43;1.73;;;0.50;;
26686;SDS011;14298;50.900;4.648;2023-09-30T12:01:00;1.03;;;0.63;;
26686;SDS011;14298;50.900;4.648;2023-09-30T12:03:28;0.70;;;0.67;;
26686;SDS011;14298;50.900;4.648;2023-09-30T12:05:57;1.47;;;0.57;;
26686;SDS011;14298;50.900;4.648;2023-09-30T12:08:26;3.50;;;1.57;;
26686;SDS011;14298;50.900;4.648;2023-09-30T12:10:56;3.27;;;1.10;;
26686;SDS011;14298;50.900;4.648;2023-09-30T12:13:24;1.17;;;1.07;;
26686;SDS011;14298;50.900;4.648;2023-09-30T12:15:52;1.83;;;0.80;;
26686;SDS011;14298;50.900;4.648;2023-09-30T12:18:20;0.60;;;0.50;;
26686;SDS011;14298;50.900;4.648;2023-09-30T12:20:52;2.63;;;0.93;;
26686;SDS011;14298;50.900;4.648;2023-09-30T12:23:20;1.53;;;0.80;;
26686;SDS011;14298;50.900;4.648;2023-09-30T12:25:48;1.57;;;0.73;;
26686;SDS011;14298;50.900;4.648;2023-09-30T12:28:17;0.40;;;0.40;;
26686;SDS011;14298;50.900;4.648;2023-09-30T12:30:45;0.77;;;0.67;;
26686;SDS011;14298;50.900;4.648;2023-09-30T12:33:14;2.57;;;1.43;;
26686;SDS011;14298;50.900;4.648;2023-09-30T12:35:42;1.40;;;0.80;;
26686;SDS011;14298;50.900;4.648;2023-09-30T12:38:10;3.83;;;0.53;;
26686;SDS011;14298;50.900;4.648;2023-09-30T12:40:38;0.87;;;0.73;;
26686;SDS011;14298;50.900;4.648;2023-09-30T12:43:10;2.20;;;0.93;;
26686;SDS011;14298;50.900;4.648;2023-09-30T12:45:36;2.07;;;0.53;;
26686;SDS011;14298;50.900;4.648;2023-09-30T12:48:06;2.27;;;1.03;;
26686;SDS011;14298;50.900;4.648;2023-09-30T12:50:34;0.90;;;0.90;;
26686;SDS011;14298;50.900;4.648;2023-09-30T12:53:02;4.93;;;0.90;;
26686;SDS011;14298;50.900;4.648;2023-09-30T12:55:30;2.53;;;1.50;;
26686;SDS011;14298;50.900;4.648;2023-09-30T12:57:58;1.97;;;1.13;;
26686;SDS011;14298;50.900;4.648;2023-09-30T13:00:27;1.03;;;0.70;;
26686;SDS011;14298;50.900;4.648;2023-09-30T13:02:57;0.57;;;0.57;;
26686;SDS011;14298;50.900;4.648;2023-09-30T13:05:25;1.03;;;0.67;;
26686;SDS011;14298;50.900;4.648;2023-09-30T13:07:53;0.47;;;0.43;;
26686;SDS011;14298;50.900;4.648;2023-09-30T13:10:21;10.27;;;0.93;;
26686;SDS011;14298;50.900;4.648;2023-09-30T13:12:49;0.40;;;0.40;;
26686;SDS011;14298;50.900;4.648;2023-09-30T13:15:17;1.30;;;0.83;;
26686;SDS011;14298;50.900;4.648;2023-09-30T13:17:45;3.10;;;0.80;;
26686;SDS011;14298;50.900;4.648;2023-09-30T13:20:13;2.97;;;1.10;;
26686;SDS011;14298;50.900;4.648;2023-09-30T13:22:41;1.70;;;1.00;;
26686;SDS011;14298;50.900;4.648;2023-09-30T13:25:09;0.80;;;0.80;;
26686;SDS011;14298;50.900;4.648;2023-09-30T13:27:39;0.63;;;0.37;;
26686;SDS011;14298;50.900;4.648;2023-09-30T13:30:07;1.90;;;0.97;;
26686;SDS011;14298;50.900;4.648;2023-09-30T13:32:35;1.27;;;1.03;;
26686;SDS011;14298;50.900;4.648;2023-09-30T13:35:05;0.93;;;0.77;;
26686;SDS011;14298;50.900;4.648;2023-09-30T13:37:34;1.93;;;0.50;;
26686;SDS011;14298;50.900;4.648;2023-09-30T13:40:02;2.07;;;0.93;;
26686;SDS011;14298;50.900;4.648;2023-09-30T13:42:32;1.60;;;0.80;;
26686;SDS011;14298;50.900;4.648;2023-09-30T13:45:00;1.50;;;0.90;;
26686;SDS011;14298;50.900;4.648;2023-09-30T13:47:30;0.40;;;0.40;;
26686;SDS011;14298;50.900;4.648;2023-09-30T13:49:58;0.67;;;0.63;;
26686;SDS011;14298;50.900;4.648;2023-09-30T13:52:26;1.87;;;1.00;;
26686;SDS011;14298;50.900;4.648;2023-09-30T13:54:54;3.60;;;1.03;;
26686;SDS011;14298;50.900;4.648;2023-09-30T13:57:22;1.40;;;1.10;;
26686;SDS011;14298;50.900;4.648;2023-09-30T13:59:50;5.30;;;1.30;;
26686;SDS011;14298;50.900;4.648;2023-09-30T14:02:18;0.60;;;0.53;;
26686;SDS011;14298;50.900;4.648;2023-09-30T14:04:46;0.53;;;0.30;;
26686;SDS011;14298;50.900;4.648;2023-09-30T14:07:14;2.67;;;0.47;;
26686;SDS011;14298;50.900;4.648;2023-09-30T14:09:44;0.50;;;0.47;;
26686;SDS011;14298;50.900;4.648;2023-09-30T14:12:12;1.00;;;0.57;;
26686;SDS011;14298;50.900;4.648;2023-09-30T14:14:41;4.27;;;0.73;;
26686;SDS011;14298;50.900;4.648;2023-09-30T14:17:09;2.63;;;0.60;;
26686;SDS011;14298;50.900;4.648;2023-09-30T14:19:41;1.10;;;0.53;;
26686;SDS011;14298;50.900;4.648;2023-09-30T14:22:09;0.40;;;0.40;;
26686;SDS011;14298;50.900;4.648;2023-09-30T14:24:37;0.57;;;0.40;;
26686;SDS011;14298;50.900;4.648;2023-09-30T14:27:05;1.70;;;0.63;;
26686;SDS011;14298;50.900;4.648;2023-09-30T14:29:34;0.53;;;0.53;;
26686;SDS011;14298;50.900;4.648;2023-09-30T14:32:02;0.77;;;0.77;;
26686;SDS011;14298;50.900;4.648;2023-09-30T14:34:30;0.30;;;0.30;;
26686;SDS011;14298;50.900;4.648;2023-09-30T14:36:58;0.53;;;0.47;;
26686;SDS011;14298;50.900;4.648;2023-09-30T14:39:26;0.70;;;0.63;;
26686;SDS011;14298;50.900;4.648;2023-09-30T14:41:54;1.60;;;1.27;;
26686;SDS011;14298;50.900;4.648;2023-09-30T14:44:22;4.53;;;0.83;;
26686;SDS011;14298;50.900;4.648;2023-09-30T14:46:50;0.87;;;0.80;;
26686;SDS011;14298;50.900;4.648;2023-09-30T14:49:19;0.60;;;0.43;;
26686;SDS011;14298;50.900;4.648;2023-09-30T14:51:47;0.93;;;0.50;;
26686;SDS011;14298;50.900;4.648;2023-09-30T14:54:15;0.40;;;0.37;;
26686;SDS011;14298;50.900;4.648;2023-09-30T14:56:43;2.57;;;0.67;;
26686;SDS011;14298;50.900;4.648;2023-09-30T14:59:12;6.17;;;0.77;;
26686;SDS011;14298;50.900;4.648;2023-09-30T15:01:40;1.70;;;0.80;;
26686;SDS011;14298;50.900;4.648;2023-09-30T15:04:08;0.70;;;0.57;;
26686;SDS011;14298;50.900;4.648;2023-09-30T15:06:36;3.40;;;1.33;;
26686;SDS011;14298;50.900;4.648;2023-09-30T15:09:04;0.87;;;0.77;;
26686;SDS011;14298;50.900;4.648;2023-09-30T15:11:32;1.50;;;0.73;;
26686;SDS011;14298;50.900;4.648;2023-09-30T15:14:00;0.70;;;0.63;;
26686;SDS011;14298;50.900;4.648;2023-09-30T15:16:28;1.10;;;0.73;;
26686;SDS011;14298;50.900;4.648;2023-09-30T15:18:56;3.03;;;1.63;;
26686;SDS011;14298;50.900;4.648;2023-09-30T15:21:24;2.00;;;1.00;;